sensor_id;sensor_type;location;lat;lon;timestamp;pressure;altitude;pressure_sealevel;temperature;humidity
804;BME280;25687;49.976;8.240;2023-02-11T00:01:15;102111.19;;;1.22;100.00
804;BME280;25687;49.976;8.240;2023-02-11T00:03:43;102107.97;;;1.32;100.00
804;BME280;25687;49.976;8.240;2023-02-11T00:06:10;102114.84;;;1.38;100.00
804;BME280;25687;49.976;8.240;2023-02-11T00:08:36;102114.16;;;1.51;100.00
804;BME280;25687;49.976;8.240;2023-02-11T00:11:02;102112.53;;;1.55;100.00
804;BME280;25687;49.976;8.240;2023-02-11T00:13:27;102110.72;;;1.48;100.00
804;BME280;25687;49.976;8.240;2023-02-11T00:15:53;102110.19;;;1.67;100.00
804;BME280;25687;49.976;8.240;2023-02-11T00:18:19;102110.25;;;1.72;100.00
804;BME280;25687;49.976;8.240;2023-02-11T00:20:45;102109.47;;;1.76;100.00
804;BME280;25687;49.976;8.240;2023-02-11T00:23:10;102108.81;;;1.89;100.00
804;BME280;25687;49.976;8.240;2023-02-11T00:25:43;102107.81;;;1.76;100.00
804;BME280;25687;49.976;8.240;2023-02-11T00:28:09;102110.38;;;1.80;100.00
804;BME280;25687;49.976;8.240;2023-02-11T00:30:35;102102.97;;;1.93;100.00
804;BME280;25687;49.976;8.240;2023-02-11T00:33:01;102100.53;;;2.01;100.00
804;BME280;25687;49.976;8.240;2023-02-11T00:35:27;102094.47;;;1.91;100.00
804;BME280;25687;49.976;8.240;2023-02-11T00:37:53;102094.72;;;2.10;100.00
804;BME280;25687;49.976;8.240;2023-02-11T00:40:19;102094.66;;;2.07;100.00
804;BME280;25687;49.976;8.240;2023-02-11T00:42:44;102090.56;;;2.17;100.00
804;BME280;25687;49.976;8.240;2023-02-11T00:45:10;102103.31;;;2.20;100.00
804;BME280;25687;49.976;8.240;2023-02-11T00:47:35;102094.97;;;2.32;100.00
804;BME280;25687;49.976;8.240;2023-02-11T00:50:01;102084.78;;;2.29;100.00
804;BME280;25687;49.976;8.240;2023-02-11T00:52:28;102089.13;;;2.40;100.00
804;BME280;25687;49.976;8.240;2023-02-11T00:54:54;102086.59;;;2.40;100.00
804;BME280;25687;49.976;8.240;2023-02-11T00:57:19;102077.44;;;2.53;100.00
804;BME280;25687;49.976;8.240;2023-02-11T00:59:44;102080.81;;;2.55;100.00
804;BME280;25687;49.976;8.240;2023-02-11T01:02:09;102079.84;;;2.41;100.00
804;BME280;25687;49.976;8.240;2023-02-11T01:04:35;102084.19;;;2.51;100.00
804;BME280;25687;49.976;8.240;2023-02-11T01:07:00;102084.13;;;2.47;100.00
804;BME280;25687;49.976;8.240;2023-02-11T01:09:25;102080.69;;;2.41;100.00
804;BME280;25687;49.976;8.240;2023-02-11T01:11:50;102071.28;;;2.33;100.00
804;BME280;25687;49.976;8.240;2023-02-11T01:14:16;102077.16;;;2.29;100.00
804;BME280;25687;49.976;8.240;2023-02-11T01:16:41;102075.66;;;2.46;100.00
804;BME280;25687;49.976;8.240;2023-02-11T01:19:07;102078.19;;;2.46;100.00
804;BME280;25687;49.976;8.240;2023-02-11T01:21:32;102074.06;;;2.56;100.00
804;BME280;25687;49.976;8.240;2023-02-11T01:23:57;102072.47;;;2.64;100.00
804;BME280;25687;49.976;8.240;2023-02-11T01:26:23;102070.63;;;2.51;100.00
804;BME280;25687;49.976;8.240;2023-02-11T01:28:48;102076.66;;;2.61;100.00
804;BME280;25687;49.976;8.240;2023-02-11T01:31:13;102065.69;;;2.66;100.00
804;BME280;25687;49.976;8.240;2023-02-11T01:33:39;102059.91;;;2.83;100.00
804;BME280;25687;49.976;8.240;2023-02-11T01:36:05;102060.72;;;2.79;100.00
804;BME280;25687;49.976;8.240;2023-02-11T01:38:30;102070.06;;;2.78;100.00
804;BME280;25687;49.976;8.240;2023-02-11T01:41:02;102061.63;;;2.82;100.00
804;BME280;25687;49.976;8.240;2023-02-11T01:43:32;102058.25;;;2.86;100.00
804;BME280;25687;49.976;8.240;2023-02-11T01:46:00;102064.94;;;2.75;100.00
804;BME280;25687;49.976;8.240;2023-02-11T01:54:48;102047.91;;;2.65;100.00
804;BME280;25687;49.976;8.240;2023-02-11T01:57:34;102044.53;;;2.67;100.00
804;BME280;25687;49.976;8.240;2023-02-11T02:02:50;102031.94;;;2.78;100.00
804;BME280;25687;49.976;8.240;2023-02-11T02:05:25;102029.41;;;2.78;100.00
804;BME280;25687;49.976;8.240;2023-02-11T02:08:04;102029.19;;;2.56;100.00
804;BME280;25687;49.976;8.240;2023-02-11T02:10:33;102026.63;;;2.53;100.00
804;BME280;25687;49.976;8.240;2023-02-11T02:12:59;102030.75;;;2.42;100.00
804;BME280;25687;49.976;8.240;2023-02-11T02:15:31;102030.69;;;2.39;100.00
804;BME280;25687;49.976;8.240;2023-02-11T02:26:13;102021.59;;;2.61;100.00
804;BME280;25687;49.976;8.240;2023-02-11T02:37:36;102004.66;;;2.62;100.00
804;BME280;25687;49.976;8.240;2023-02-11T02:40:08;102012.44;;;2.76;100.00
804;BME280;25687;49.976;8.240;2023-02-11T02:42:34;102003.13;;;2.78;100.00
804;BME280;25687;49.976;8.240;2023-02-11T02:45:00;102006.47;;;2.75;100.00
804;BME280;25687;49.976;8.240;2023-02-11T02:47:26;102024.28;;;2.75;100.00
804;BME280;25687;49.976;8.240;2023-02-11T02:49:51;102024.22;;;2.67;100.00
804;BME280;25687;49.976;8.240;2023-02-11T03:03:29;102025.75;;;2.53;100.00
804;BME280;25687;49.976;8.240;2023-02-11T03:06:11;102018.19;;;2.57;100.00
804;BME280;25687;49.976;8.240;2023-02-11T03:08:45;102014.81;;;2.58;100.00
804;BME280;25687;49.976;8.240;2023-02-11T03:11:16;102006.34;;;2.58;100.00
804;BME280;25687;49.976;8.240;2023-02-11T03:13:43;102006.19;;;2.44;100.00
804;BME280;25687;49.976;8.240;2023-02-11T03:16:14;102010.38;;;2.39;100.00
804;BME280;25687;49.976;8.240;2023-02-11T03:18:45;102017.88;;;2.26;100.00
804;BME280;25687;49.976;8.240;2023-02-11T03:21:15;102019.59;;;2.31;100.00
804;BME280;25687;49.976;8.240;2023-02-11T03:23:46;102016.81;;;2.07;100.00
804;BME280;25687;49.976;8.240;2023-02-11T03:28:52;102015.88;;;2.01;100.00
804;BME280;25687;49.976;8.240;2023-02-11T03:31:25;102013.63;;;2.25;100.00
804;BME280;25687;49.976;8.240;2023-02-11T03:34:07;102005.91;;;2.15;100.00
804;BME280;25687;49.976;8.240;2023-02-11T03:36:59;101998.09;;;1.99;100.00
804;BME280;25687;49.976;8.240;2023-02-11T03:42:38;101983.50;;;1.80;100.00
804;BME280;25687;49.976;8.240;2023-02-11T03:45:11;101990.47;;;1.98;100.00
804;BME280;25687;49.976;8.240;2023-02-11T03:47:41;101987.88;;;1.94;100.00
804;BME280;25687;49.976;8.240;2023-02-11T03:50:09;101983.78;;;2.06;100.00
804;BME280;25687;49.976;8.240;2023-02-11T03:52:37;101967.78;;;2.13;100.00
804;BME280;25687;49.976;8.240;2023-02-11T03:55:08;101954.25;;;2.14;100.00
804;BME280;25687;49.976;8.240;2023-02-11T03:57:35;101944.84;;;2.04;100.00
804;BME280;25687;49.976;8.240;2023-02-11T04:00:01;101935.69;;;2.18;100.00
804;BME280;25687;49.976;8.240;2023-02-11T04:02:29;101927.19;;;2.15;100.00
804;BME280;25687;49.976;8.240;2023-02-11T04:04:55;101913.69;;;2.19;100.00
804;BME280;25687;49.976;8.240;2023-02-11T04:07:21;101905.31;;;2.31;100.00
804;BME280;25687;49.976;8.240;2023-02-11T04:09:47;101906.84;;;2.12;100.00
804;BME280;25687;49.976;8.240;2023-02-11T04:12:12;101905.25;;;2.21;100.00
804;BME280;25687;49.976;8.240;2023-02-11T04:14:37;101903.66;;;2.31;100.00
804;BME280;25687;49.976;8.240;2023-02-11T04:17:02;101904.47;;;2.30;100.00
804;BME280;25687;49.976;8.240;2023-02-11T04:19:28;101907.84;;;2.29;100.00
804;BME280;25687;49.976;8.240;2023-02-11T04:21:53;101918.00;;;2.28;100.00
804;BME280;25687;49.976;8.240;2023-02-11T04:24:18;101923.97;;;2.30;100.00
804;BME280;25687;49.976;8.240;2023-02-11T04:26:44;101941.69;;;2.28;100.00
804;BME280;25687;49.976;8.240;2023-02-11T04:29:09;101941.75;;;2.31;100.00
804;BME280;25687;49.976;8.240;2023-02-11T04:31:34;101949.03;;;2.00;100.00
804;BME280;25687;49.976;8.240;2023-02-11T04:33:59;101947.47;;;2.10;100.00
804;BME280;25687;49.976;8.240;2023-02-11T04:36:25;101946.59;;;2.09;100.00
804;BME280;25687;49.976;8.240;2023-02-11T04:38:50;101945.81;;;2.18;100.00
804;BME280;25687;49.976;8.240;2023-02-11T04:41:15;101950.00;;;2.08;100.00
804;BME280;25687;49.976;8.240;2023-02-11T04:43:40;101958.16;;;1.81;100.00
804;BME280;25687;49.976;8.240;2023-02-11T04:46:06;101955.75;;;1.93;100.00
804;BME280;25687;49.976;8.240;2023-02-11T04:48:31;101961.59;;;1.88;100.00
804;BME280;25687;49.976;8.240;2023-02-11T04:50:56;101969.34;;;1.99;100.00
804;BME280;25687;49.976;8.240;2023-02-11T04:53:22;101971.94;;;2.05;100.00
804;BME280;25687;49.976;8.240;2023-02-11T04:55:48;101971.13;;;2.09;100.00
804;BME280;25687;49.976;8.240;2023-02-11T04:58:14;101959.97;;;1.94;100.00
804;BME280;25687;49.976;8.240;2023-02-11T05:00:39;101959.69;;;1.70;100.00
804;BME280;25687;49.976;8.240;2023-02-11T05:03:05;101960.56;;;1.70;100.00
804;BME280;25687;49.976;8.240;2023-02-11T05:05:30;101958.97;;;1.80;100.00
804;BME280;25687;49.976;8.240;2023-02-11T05:07:55;101954.06;;;1.96;100.00
804;BME280;25687;49.976;8.240;2023-02-11T05:10:21;101950.72;;;1.98;100.00
804;BME280;25687;49.976;8.240;2023-02-11T05:12:47;101944.09;;;2.13;100.00
804;BME280;25687;49.976;8.240;2023-02-11T05:15:13;101943.34;;;2.20;100.00
804;BME280;25687;49.976;8.240;2023-02-11T05:17:38;101937.25;;;2.05;100.00
804;BME280;25687;49.976;8.240;2023-02-11T05:20:04;101929.44;;;1.88;100.00
804;BME280;25687;49.976;8.240;2023-02-11T05:22:29;101911.53;;;1.74;100.00
804;BME280;25687;49.976;8.240;2023-02-11T05:24:54;101902.06;;;1.59;100.00
804;BME280;25687;49.976;8.240;2023-02-11T05:27:20;101898.53;;;1.47;100.00
804;BME280;25687;49.976;8.240;2023-02-11T05:29:45;101899.28;;;1.39;100.00
804;BME280;25687;49.976;8.240;2023-02-11T05:32:10;101901.78;;;1.35;100.00
804;BME280;25687;49.976;8.240;2023-02-11T05:34:36;101905.97;;;1.33;100.00
804;BME280;25687;49.976;8.240;2023-02-11T05:37:01;101906.84;;;1.35;100.00
804;BME280;25687;49.976;8.240;2023-02-11T05:39:27;101909.59;;;1.50;100.00
804;BME280;25687;49.976;8.240;2023-02-11T05:41:52;101914.69;;;1.55;100.00
804;BME280;25687;49.976;8.240;2023-02-11T05:44:17;101919.94;;;1.69;100.00
804;BME280;25687;49.976;8.240;2023-02-11T05:46:42;101920.88;;;1.77;100.00
804;BME280;25687;49.976;8.240;2023-02-11T05:49:08;101924.28;;;1.79;100.00
804;BME280;25687;49.976;8.240;2023-02-11T05:51:33;101932.03;;;1.90;100.00
804;BME280;25687;49.976;8.240;2023-02-11T05:53:58;101945.47;;;1.81;100.00
804;BME280;25687;49.976;8.240;2023-02-11T05:56:23;101948.78;;;1.75;100.00
804;BME280;25687;49.976;8.240;2023-02-11T05:58:49;101948.75;;;1.74;100.00
804;BME280;25687;49.976;8.240;2023-02-11T06:01:14;101939.44;;;1.73;100.00
804;BME280;25687;49.976;8.240;2023-02-11T06:03:39;101941.91;;;1.70;100.00
804;BME280;25687;49.976;8.240;2023-02-11T06:06:09;101947.66;;;1.53;100.00
804;BME280;25687;49.976;8.240;2023-02-11T06:08:34;101955.34;;;1.59;100.00
804;BME280;25687;49.976;8.240;2023-02-11T06:10:59;101955.41;;;1.64;100.00
804;BME280;25687;49.976;8.240;2023-02-11T06:13:24;101954.53;;;1.64;100.00
804;BME280;25687;49.976;8.240;2023-02-11T06:15:57;101953.47;;;1.44;100.00
804;BME280;25687;49.976;8.240;2023-02-11T06:18:22;101951.97;;;1.59;100.00
804;BME280;25687;49.976;8.240;2023-02-11T06:20:48;101957.56;;;1.35;100.00
804;BME280;25687;49.976;8.240;2023-02-11T06:23:13;101962.81;;;1.49;100.00
804;BME280;25687;49.976;8.240;2023-02-11T06:25:38;101946.16;;;1.69;100.00
804;BME280;25687;49.976;8.240;2023-02-11T06:28:03;101951.38;;;1.80;100.00
804;BME280;25687;49.976;8.240;2023-02-11T06:30:29;101955.69;;;1.89;100.00
804;BME280;25687;49.976;8.240;2023-02-11T06:32:54;101965.53;;;1.63;100.00
804;BME280;25687;49.976;8.240;2023-02-11T06:35:19;101963.66;;;1.49;100.00
804;BME280;25687;49.976;8.240;2023-02-11T06:37:45;101961.16;;;1.52;100.00
804;BME280;25687;49.976;8.240;2023-02-11T06:40:11;101962.94;;;1.56;100.00
804;BME280;25687;49.976;8.240;2023-02-11T06:42:37;101963.09;;;1.72;100.00
804;BME280;25687;49.976;8.240;2023-02-11T06:45:06;101964.94;;;1.84;100.00
804;BME280;25687;49.976;8.240;2023-02-11T06:47:33;101960.72;;;1.84;100.00
804;BME280;25687;49.976;8.240;2023-02-11T06:49:59;101963.31;;;1.89;100.00
804;BME280;25687;49.976;8.240;2023-02-11T06:52:24;101958.16;;;1.81;100.00
804;BME280;25687;49.976;8.240;2023-02-11T06:54:49;101955.56;;;1.80;100.00
804;BME280;25687;49.976;8.240;2023-02-11T06:57:15;101948.91;;;1.88;100.00
804;BME280;25687;49.976;8.240;2023-02-11T06:59:40;101947.97;;;1.80;100.00
804;BME280;25687;49.976;8.240;2023-02-11T07:02:05;101943.91;;;1.92;100.00
804;BME280;25687;49.976;8.240;2023-02-11T07:04:31;101936.38;;;2.02;100.00
804;BME280;25687;49.976;8.240;2023-02-11T07:06:56;101942.38;;;2.08;100.00
804;BME280;25687;49.976;8.240;2023-02-11T07:09:21;101943.16;;;2.03;100.00
804;BME280;25687;49.976;8.240;2023-02-11T07:11:46;101939.84;;;2.12;100.00
804;BME280;25687;49.976;8.240;2023-02-11T07:14:12;101939.97;;;2.22;100.00
804;BME280;25687;49.976;8.240;2023-02-11T07:16:37;101941.63;;;2.19;100.00
804;BME280;25687;49.976;8.240;2023-02-11T07:19:03;101939.16;;;2.26;100.00
804;BME280;25687;49.976;8.240;2023-02-11T07:21:28;101934.00;;;2.20;100.00
804;BME280;25687;49.976;8.240;2023-02-11T07:23:53;101929.00;;;2.26;100.00
804;BME280;25687;49.976;8.240;2023-02-11T07:26:21;101929.88;;;2.32;100.00
804;BME280;25687;49.976;8.240;2023-02-11T07:28:47;101929.00;;;2.26;100.00
804;BME280;25687;49.976;8.240;2023-02-11T07:31:19;101931.59;;;2.34;100.00
804;BME280;25687;49.976;8.240;2023-02-11T07:33:45;101940.19;;;2.46;100.00
804;BME280;25687;49.976;8.240;2023-02-11T07:36:11;101942.78;;;2.56;100.00
804;BME280;25687;49.976;8.240;2023-02-11T07:38:37;101946.31;;;2.74;100.00
804;BME280;25687;49.976;8.240;2023-02-11T07:41:09;101941.38;;;2.91;100.00
804;BME280;25687;49.976;8.240;2023-02-11T07:43:35;101959.25;;;3.03;100.00
804;BME280;25687;49.976;8.240;2023-02-11T07:46:05;101950.91;;;3.25;100.00
804;BME280;25687;49.976;8.240;2023-02-11T07:48:31;101954.25;;;3.16;100.00
804;BME280;25687;49.976;8.240;2023-02-11T07:51:11;101956.88;;;3.36;100.00
804;BME280;25687;49.976;8.240;2023-02-11T07:53:37;101951.88;;;3.48;100.00
804;BME280;25687;49.976;8.240;2023-02-11T07:56:04;101946.81;;;3.53;100.00
804;BME280;25687;49.976;8.240;2023-02-11T07:58:30;101964.63;;;3.53;100.00
804;BME280;25687;49.976;8.240;2023-02-11T08:01:00;101958.75;;;3.69;100.00
804;BME280;25687;49.976;8.240;2023-02-11T08:03:26;101961.31;;;3.71;100.00
804;BME280;25687;49.976;8.240;2023-02-11T08:05:51;101955.34;;;3.70;100.00
804;BME280;25687;49.976;8.240;2023-02-11T08:08:17;101955.34;;;3.69;100.00
804;BME280;25687;49.976;8.240;2023-02-11T08:10:42;101963.84;;;3.66;100.00
804;BME280;25687;49.976;8.240;2023-02-11T08:13:07;101968.16;;;3.87;100.00
804;BME280;25687;49.976;8.240;2023-02-11T08:15:32;101965.63;;;3.86;100.00
804;BME280;25687;49.976;8.240;2023-02-11T08:17:58;101963.94;;;3.99;100.00
804;BME280;25687;49.976;8.240;2023-02-11T08:20:23;101958.06;;;4.34;100.00
804;BME280;25687;49.976;8.240;2023-02-11T08:22:48;101966.59;;;4.51;100.00
804;BME280;25687;49.976;8.240;2023-02-11T08:25:13;101961.47;;;4.68;100.00
804;BME280;25687;49.976;8.240;2023-02-11T08:27:39;101964.03;;;4.79;100.00
804;BME280;25687;49.976;8.240;2023-02-11T08:30:04;101964.88;;;4.91;100.00
804;BME280;25687;49.976;8.240;2023-02-11T08:32:30;101966.59;;;4.96;100.00
804;BME280;25687;49.976;8.240;2023-02-11T08:34:55;101973.38;;;4.99;100.00
804;BME280;25687;49.976;8.240;2023-02-11T08:37:20;101968.28;;;5.10;100.00
804;BME280;25687;49.976;8.240;2023-02-11T08:39:46;101975.91;;;5.17;100.00
804;BME280;25687;49.976;8.240;2023-02-11T08:42:12;101987.75;;;5.29;100.00
804;BME280;25687;49.976;8.240;2023-02-11T08:44:39;101980.16;;;5.14;100.00
804;BME280;25687;49.976;8.240;2023-02-11T08:47:05;101980.13;;;5.28;100.00
804;BME280;25687;49.976;8.240;2023-02-11T08:49:30;101978.34;;;5.52;100.00
804;BME280;25687;49.976;8.240;2023-02-11T08:51:56;101977.47;;;5.63;100.00
804;BME280;25687;49.976;8.240;2023-02-11T08:54:26;101979.88;;;5.96;100.00
804;BME280;25687;49.976;8.240;2023-02-11T08:56:51;101981.63;;;5.85;100.00
804;BME280;25687;49.976;8.240;2023-02-11T08:59:17;101990.16;;;5.82;100.00
804;BME280;25687;49.976;8.240;2023-02-11T09:01:42;101990.13;;;5.90;100.00
804;BME280;25687;49.976;8.240;2023-02-11T09:04:08;101994.31;;;6.14;100.00
804;BME280;25687;49.976;8.240;2023-02-11T09:06:34;101996.03;;;6.06;100.00
804;BME280;25687;49.976;8.240;2023-02-11T09:08:59;102001.09;;;6.17;100.00
804;BME280;25687;49.976;8.240;2023-02-11T09:11:31;102000.28;;;6.10;100.00
804;BME280;25687;49.976;8.240;2023-02-11T09:13:57;101995.66;;;6.66;100.00
804;BME280;25687;49.976;8.240;2023-02-11T09:16:28;101996.47;;;6.68;100.00
804;BME280;25687;49.976;8.240;2023-02-11T09:18:55;101992.63;;;7.22;100.00
804;BME280;25687;49.976;8.240;2023-02-11T09:21:21;102000.88;;;7.44;100.00
804;BME280;25687;49.976;8.240;2023-02-11T09:23:46;101992.16;;;8.28;100.00
804;BME280;25687;49.976;8.240;2023-02-11T09:26:18;101997.69;;;9.58;99.35
804;BME280;25687;49.976;8.240;2023-02-11T09:28:45;102000.06;;;9.67;93.73
804;BME280;25687;49.976;8.240;2023-02-11T09:31:12;102003.41;;;9.27;94.19
804;BME280;25687;49.976;8.240;2023-02-11T09:33:40;102008.91;;;9.05;96.77
804;BME280;25687;49.976;8.240;2023-02-11T09:36:11;102001.75;;;9.23;97.11
804;BME280;25687;49.976;8.240;2023-02-11T09:38:37;102014.63;;;9.21;97.77
804;BME280;25687;49.976;8.240;2023-02-11T09:41:02;102023.50;;;9.04;98.49
804;BME280;25687;49.976;8.240;2023-02-11T09:43:44;102023.78;;;8.86;98.25
804;BME280;25687;49.976;8.240;2023-02-11T09:46:14;102030.72;;;8.79;100.00
804;BME280;25687;49.976;8.240;2023-02-11T09:48:42;102026.47;;;8.19;100.00
804;BME280;25687;49.976;8.240;2023-02-11T09:51:23;102034.31;;;8.08;100.00
804;BME280;25687;49.976;8.240;2023-02-11T09:53:57;102024.00;;;8.11;100.00
804;BME280;25687;49.976;8.240;2023-02-11T09:56:24;102026.56;;;8.13;100.00
804;BME280;25687;49.976;8.240;2023-02-11T09:58:49;102035.38;;;7.90;100.00
804;BME280;25687;49.976;8.240;2023-02-11T10:01:32;102031.72;;;8.10;100.00
804;BME280;25687;49.976;8.240;2023-02-11T10:04:13;102038.84;;;7.86;100.00
804;BME280;25687;49.976;8.240;2023-02-11T10:06:44;102035.88;;;8.20;100.00
804;BME280;25687;49.976;8.240;2023-02-11T10:15:14;102031.94;;;7.93;100.00
804;BME280;25687;49.976;8.240;2023-02-11T10:23:06;102031.78;;;8.03;100.00
804;BME280;25687;49.976;8.240;2023-02-11T10:25:36;102031.22;;;7.83;100.00
804;BME280;25687;49.976;8.240;2023-02-11T10:28:11;102037.94;;;7.91;100.00
804;BME280;25687;49.976;8.240;2023-02-11T10:30:42;102037.88;;;7.95;100.00
804;BME280;25687;49.976;8.240;2023-02-11T10:33:19;102032.03;;;7.83;100.00
804;BME280;25687;49.976;8.240;2023-02-11T10:35:47;102032.25;;;7.66;100.00
804;BME280;25687;49.976;8.240;2023-02-11T10:38:13;102028.75;;;7.73;100.00
804;BME280;25687;49.976;8.240;2023-02-11T10:40:38;102026.16;;;7.75;100.00
804;BME280;25687;49.976;8.240;2023-02-11T10:43:06;102031.34;;;7.70;100.00
804;BME280;25687;49.976;8.240;2023-02-11T10:45:48;102032.03;;;7.86;100.00
804;BME280;25687;49.976;8.240;2023-02-11T10:48:40;102039.53;;;7.99;100.00
804;BME280;25687;49.976;8.240;2023-02-11T10:53:34;102044.97;;;7.72;100.00
804;BME280;25687;49.976;8.240;2023-02-11T10:56:00;102042.53;;;7.63;100.00
804;BME280;25687;49.976;8.240;2023-02-11T10:58:30;102031.78;;;8.03;100.00
804;BME280;25687;49.976;8.240;2023-02-11T11:00:58;102028.38;;;8.04;100.00
804;BME280;25687;49.976;8.240;2023-02-11T11:03:27;102015.56;;;8.04;100.00
804;BME280;25687;49.976;8.240;2023-02-11T11:06:04;102008.69;;;8.05;100.00
804;BME280;25687;49.976;8.240;2023-02-11T11:08:45;102015.78;;;7.86;100.00
804;BME280;25687;49.976;8.240;2023-02-11T11:11:19;102007.44;;;7.70;100.00
804;BME280;25687;49.976;8.240;2023-02-11T11:18:45;102012.97;;;8.06;100.00
804;BME280;25687;49.976;8.240;2023-02-11T11:21:15;102002.75;;;8.03;100.00
804;BME280;25687;49.976;8.240;2023-02-11T11:23:48;102006.50;;;8.39;100.00
804;BME280;25687;49.976;8.240;2023-02-11T11:26:15;102002.00;;;8.59;100.00
804;BME280;25687;49.976;8.240;2023-02-11T11:31:25;102008.72;;;8.64;100.00
804;BME280;25687;49.976;8.240;2023-02-11T11:33:53;102005.09;;;8.18;100.00
804;BME280;25687;49.976;8.240;2023-02-11T11:36:23;102003.03;;;8.42;100.00
804;BME280;25687;49.976;8.240;2023-02-11T11:38:57;102002.28;;;8.38;100.00
804;BME280;25687;49.976;8.240;2023-02-11T11:41:29;102009.81;;;8.49;100.00
804;BME280;25687;49.976;8.240;2023-02-11T11:46:41;101998.56;;;9.10;100.00
804;BME280;25687;49.976;8.240;2023-02-11T11:49:16;102007.41;;;9.40;100.00
804;BME280;25687;49.976;8.240;2023-02-11T11:51:56;102003.19;;;9.37;100.00
804;BME280;25687;49.976;8.240;2023-02-11T11:54:26;102010.34;;;9.22;100.00
804;BME280;25687;49.976;8.240;2023-02-11T11:57:15;102005.34;;;9.15;100.00
804;BME280;25687;49.976;8.240;2023-02-11T11:59:42;102011.00;;;9.33;100.00
804;BME280;25687;49.976;8.240;2023-02-11T12:05:10;101997.97;;;8.97;100.00
804;BME280;25687;49.976;8.240;2023-02-11T12:07:49;102002.03;;;9.07;100.00
804;BME280;25687;49.976;8.240;2023-02-11T12:15:54;101996.66;;;9.21;100.00
804;BME280;25687;49.976;8.240;2023-02-11T12:18:33;102003.44;;;9.24;100.00
804;BME280;25687;49.976;8.240;2023-02-11T12:26:17;102010.75;;;8.98;100.00
804;BME280;25687;49.976;8.240;2023-02-11T12:39:36;101995.91;;;8.66;100.00
804;BME280;25687;49.976;8.240;2023-02-11T12:42:39;101999.66;;;8.42;100.00
804;BME280;25687;49.976;8.240;2023-02-11T12:45:38;101995.88;;;8.06;100.00
804;BME280;25687;49.976;8.240;2023-02-11T12:48:15;101996.91;;;7.93;100.00
804;BME280;25687;49.976;8.240;2023-02-11T12:54:31;101988.19;;;8.05;100.00
804;BME280;25687;49.976;8.240;2023-02-11T13:05:25;101978.88;;;8.60;100.00
804;BME280;25687;49.976;8.240;2023-02-11T13:07:54;101977.41;;;8.44;100.00
804;BME280;25687;49.976;8.240;2023-02-11T13:10:30;101975.63;;;8.46;100.00
804;BME280;25687;49.976;8.240;2023-02-11T13:12:58;101977.13;;;8.64;100.00
804;BME280;25687;49.976;8.240;2023-02-11T13:15:51;101970.59;;;8.39;100.00
804;BME280;25687;49.976;8.240;2023-02-11T13:18:44;101969.72;;;8.44;100.00
804;BME280;25687;49.976;8.240;2023-02-11T13:26:38;101967.69;;;8.66;100.00
804;BME280;25687;49.976;8.240;2023-02-11T13:31:54;101962.97;;;8.91;100.00
804;BME280;25687;49.976;8.240;2023-02-11T13:37:24;101950.78;;;9.02;100.00
804;BME280;25687;49.976;8.240;2023-02-11T13:39:57;101948.69;;;9.23;100.00
804;BME280;25687;49.976;8.240;2023-02-11T13:42:23;101943.22;;;8.95;100.00
804;BME280;25687;49.976;8.240;2023-02-11T13:44:48;101948.63;;;8.81;100.00
804;BME280;25687;49.976;8.240;2023-02-11T13:47:40;101947.47;;;8.47;100.00
804;BME280;25687;49.976;8.240;2023-02-11T13:50:06;101953.06;;;8.69;100.00
804;BME280;25687;49.976;8.240;2023-02-11T13:52:35;101956.56;;;8.65;100.00
804;BME280;25687;49.976;8.240;2023-02-11T13:57:40;101954.53;;;8.83;100.00
804;BME280;25687;49.976;8.240;2023-02-11T14:09:37;101972.28;;;8.42;100.00
804;BME280;25687;49.976;8.240;2023-02-11T14:12:21;101967.16;;;8.44;100.00
804;BME280;25687;49.976;8.240;2023-02-11T14:15:16;101972.94;;;8.56;100.00
804;BME280;25687;49.976;8.240;2023-02-11T14:17:42;101955.97;;;8.51;100.00
804;BME280;25687;49.976;8.240;2023-02-11T14:20:35;101954.28;;;8.45;100.00
804;BME280;25687;49.976;8.240;2023-02-11T14:23:02;101953.44;;;8.48;100.00
804;BME280;25687;49.976;8.240;2023-02-11T14:25:30;101956.75;;;8.53;100.00
804;BME280;25687;49.976;8.240;2023-02-11T14:28:01;101955.84;;;8.55;100.00
804;BME280;25687;49.976;8.240;2023-02-11T14:30:44;101962.78;;;8.50;100.00
804;BME280;25687;49.976;8.240;2023-02-11T14:33:41;101958.66;;;8.40;100.00
804;BME280;25687;49.976;8.240;2023-02-11T14:36:21;101955.38;;;8.30;100.00
804;BME280;25687;49.976;8.240;2023-02-11T14:39:17;101954.56;;;8.27;100.00
804;BME280;25687;49.976;8.240;2023-02-11T14:41:47;101952.66;;;8.41;100.00
804;BME280;25687;49.976;8.240;2023-02-11T14:44:18;101962.97;;;8.36;100.00
804;BME280;25687;49.976;8.240;2023-02-11T14:46:47;101956.03;;;8.46;100.00
804;BME280;25687;49.976;8.240;2023-02-11T14:49:23;101956.88;;;8.44;100.00
804;BME280;25687;49.976;8.240;2023-02-11T14:51:50;101961.78;;;8.59;100.00
804;BME280;25687;49.976;8.240;2023-02-11T14:54:19;101962.66;;;8.58;100.00
804;BME280;25687;49.976;8.240;2023-02-11T14:59:31;101967.13;;;8.45;100.00
804;BME280;25687;49.976;8.240;2023-02-11T15:01:57;101981.50;;;8.55;100.00
804;BME280;25687;49.976;8.240;2023-02-11T15:04:25;101976.63;;;8.38;100.00
804;BME280;25687;49.976;8.240;2023-02-11T15:06:51;101972.38;;;8.36;100.00
804;BME280;25687;49.976;8.240;2023-02-11T15:09:26;101976.88;;;8.21;100.00
804;BME280;25687;49.976;8.240;2023-02-11T15:11:56;101973.34;;;8.29;100.00
804;BME280;25687;49.976;8.240;2023-02-11T15:14:25;101969.00;;;8.34;100.00
804;BME280;25687;49.976;8.240;2023-02-11T15:16:52;101973.06;;;8.49;100.00
804;BME280;25687;49.976;8.240;2023-02-11T15:19:22;101974.91;;;8.39;100.00
804;BME280;25687;49.976;8.240;2023-02-11T15:21:49;101976.50;;;8.48;100.00
804;BME280;25687;49.976;8.240;2023-02-11T15:24:30;101980.09;;;8.34;100.00
804;BME280;25687;49.976;8.240;2023-02-11T15:27:12;101983.53;;;8.33;100.00
804;BME280;25687;49.976;8.240;2023-02-11T15:29:44;101980.75;;;8.50;100.00
804;BME280;25687;49.976;8.240;2023-02-11T15:32:24;101983.44;;;8.39;100.00